sensor_id;sensor_type;location;lat;lon;timestamp;P1;durP1;ratioP1;P2;durP2;ratioP2
13485;SDS011;6815;59.336;17.998;2023-01-15T00:01:46;13.93;;;5.43;;
13485;SDS011;6815;59.336;17.998;2023-01-15T00:04:16;15.23;;;5.63;;
13485;SDS011;6815;59.336;17.998;2023-01-15T00:06:47;15.70;;;4.97;;
13485;SDS011;6815;59.336;17.998;2023-01-15T00:09:16;13.13;;;4.73;;
13485;SDS011;6815;59.336;17.998;2023-01-15T00:11:44;12.77;;;4.47;;
13485;SDS011;6815;59.336;17.998;2023-01-15T00:14:11;16.10;;;4.90;;
13485;SDS011;6815;59.336;17.998;2023-01-15T00:16:38;13.97;;;5.07;;
13485;SDS011;6815;59.336;17.998;2023-01-15T00:19:04;11.13;;;4.33;;
13485;SDS011;6815;59.336;17.998;2023-01-15T00:21:34;10.30;;;4.53;;
13485;SDS011;6815;59.336;17.998;2023-01-15T00:24:00;14.13;;;4.50;;
13485;SDS011;6815;59.336;17.998;2023-01-15T00:26:44;12.37;;;4.97;;
13485;SDS011;6815;59.336;17.998;2023-01-15T00:29:32;9.97;;;4.50;;
13485;SDS011;6815;59.336;17.998;2023-01-15T00:32:05;11.87;;;4.77;;
13485;SDS011;6815;59.336;17.998;2023-01-15T00:34:34;13.20;;;4.33;;
13485;SDS011;6815;59.336;17.998;2023-01-15T00:37:07;10.97;;;4.27;;
13485;SDS011;6815;59.336;17.998;2023-01-15T00:39:37;6.80;;;3.40;;
13485;SDS011;6815;59.336;17.998;2023-01-15T00:42:04;9.37;;;3.70;;
13485;SDS011;6815;59.336;17.998;2023-01-15T00:44:33;9.43;;;3.53;;
13485;SDS011;6815;59.336;17.998;2023-01-15T00:47:00;5.73;;;3.50;;
13485;SDS011;6815;59.336;17.998;2023-01-15T00:49:26;9.03;;;3.23;;
13485;SDS011;6815;59.336;17.998;2023-01-15T00:51:53;4.77;;;2.70;;
13485;SDS011;6815;59.336;17.998;2023-01-15T00:54:24;6.27;;;2.80;;
13485;SDS011;6815;59.336;17.998;2023-01-15T00:56:49;6.00;;;2.50;;
13485;SDS011;6815;59.336;17.998;2023-01-15T00:59:15;6.63;;;2.77;;
13485;SDS011;6815;59.336;17.998;2023-01-15T01:01:42;6.93;;;2.90;;
13485;SDS011;6815;59.336;17.998;2023-01-15T01:04:09;6.03;;;2.30;;
13485;SDS011;6815;59.336;17.998;2023-01-15T01:06:46;5.60;;;2.30;;
13485;SDS011;6815;59.336;17.998;2023-01-15T01:09:16;5.70;;;2.33;;
13485;SDS011;6815;59.336;17.998;2023-01-15T01:11:42;4.73;;;2.30;;
13485;SDS011;6815;59.336;17.998;2023-01-15T01:14:09;4.70;;;2.30;;
13485;SDS011;6815;59.336;17.998;2023-01-15T01:16:48;3.87;;;1.87;;
13485;SDS011;6815;59.336;17.998;2023-01-15T01:19:16;4.83;;;2.10;;
13485;SDS011;6815;59.336;17.998;2023-01-15T01:21:44;4.67;;;2.13;;
13485;SDS011;6815;59.336;17.998;2023-01-15T01:24:12;4.80;;;1.87;;
13485;SDS011;6815;59.336;17.998;2023-01-15T01:26:41;3.17;;;2.17;;
13485;SDS011;6815;59.336;17.998;2023-01-15T01:29:11;5.87;;;1.90;;
13485;SDS011;6815;59.336;17.998;2023-01-15T01:31:47;3.07;;;1.70;;
13485;SDS011;6815;59.336;17.998;2023-01-15T01:34:15;5.93;;;1.80;;
13485;SDS011;6815;59.336;17.998;2023-01-15T01:36:41;6.37;;;2.30;;
13485;SDS011;6815;59.336;17.998;2023-01-15T01:39:09;5.80;;;2.23;;
13485;SDS011;6815;59.336;17.998;2023-01-15T01:41:38;6.30;;;2.23;;
13485;SDS011;6815;59.336;17.998;2023-01-15T01:44:06;8.77;;;2.20;;
13485;SDS011;6815;59.336;17.998;2023-01-15T01:47:17;2.90;;;1.70;;
13485;SDS011;6815;59.336;17.998;2023-01-15T01:49:47;5.30;;;2.10;;
13485;SDS011;6815;59.336;17.998;2023-01-15T01:52:26;5.63;;;2.37;;
13485;SDS011;6815;59.336;17.998;2023-01-15T01:55:09;3.97;;;1.93;;
13485;SDS011;6815;59.336;17.998;2023-01-15T01:57:37;5.33;;;2.37;;
13485;SDS011;6815;59.336;17.998;2023-01-15T02:00:04;3.50;;;2.17;;
13485;SDS011;6815;59.336;17.998;2023-01-15T02:02:32;5.90;;;2.20;;
13485;SDS011;6815;59.336;17.998;2023-01-15T02:04:59;4.43;;;2.10;;
13485;SDS011;6815;59.336;17.998;2023-01-15T02:07:31;5.67;;;2.00;;
13485;SDS011;6815;59.336;17.998;2023-01-15T02:10:00;3.30;;;1.90;;
13485;SDS011;6815;59.336;17.998;2023-01-15T02:12:38;4.93;;;1.90;;
13485;SDS011;6815;59.336;17.998;2023-01-15T02:15:56;6.10;;;1.90;;
13485;SDS011;6815;59.336;17.998;2023-01-15T02:18:11;2.50;;;1.47;;
13485;SDS011;6815;59.336;17.998;2023-01-15T02:24:04;3.07;;;1.50;;
13485;SDS011;6815;59.336;17.998;2023-01-15T02:32:18;3.30;;;1.83;;
13485;SDS011;6815;59.336;17.998;2023-01-15T02:35:22;4.77;;;1.70;;
13485;SDS011;6815;59.336;17.998;2023-01-15T02:37:58;4.57;;;1.70;;
13485;SDS011;6815;59.336;17.998;2023-01-15T02:40:28;2.30;;;1.60;;
13485;SDS011;6815;59.336;17.998;2023-01-15T02:43:07;2.93;;;1.63;;
13485;SDS011;6815;59.336;17.998;2023-01-15T02:45:36;3.53;;;1.77;;
13485;SDS011;6815;59.336;17.998;2023-01-15T02:48:10;2.93;;;1.33;;
13485;SDS011;6815;59.336;17.998;2023-01-15T02:50:43;2.03;;;1.17;;
13485;SDS011;6815;59.336;17.998;2023-01-15T02:53:18;3.87;;;1.30;;
13485;SDS011;6815;59.336;17.998;2023-01-15T02:55:48;2.87;;;1.30;;
13485;SDS011;6815;59.336;17.998;2023-01-15T02:58:20;2.47;;;1.30;;
13485;SDS011;6815;59.336;17.998;2023-01-15T03:00:51;1.50;;;0.97;;
13485;SDS011;6815;59.336;17.998;2023-01-15T03:03:20;2.03;;;1.10;;
13485;SDS011;6815;59.336;17.998;2023-01-15T03:06:04;3.27;;;1.70;;
13485;SDS011;6815;59.336;17.998;2023-01-15T03:08:46;3.60;;;1.03;;
13485;SDS011;6815;59.336;17.998;2023-01-15T03:11:15;2.70;;;1.30;;
13485;SDS011;6815;59.336;17.998;2023-01-15T03:16:35;3.27;;;1.20;;
13485;SDS011;6815;59.336;17.998;2023-01-15T03:19:11;3.13;;;1.30;;
13485;SDS011;6815;59.336;17.998;2023-01-15T03:27:19;3.50;;;1.07;;
13485;SDS011;6815;59.336;17.998;2023-01-15T03:29:47;3.13;;;1.43;;
13485;SDS011;6815;59.336;17.998;2023-01-15T03:32:17;3.33;;;1.33;;
13485;SDS011;6815;59.336;17.998;2023-01-15T03:37:14;2.93;;;1.43;;
13485;SDS011;6815;59.336;17.998;2023-01-15T03:39:41;1.37;;;1.00;;
13485;SDS011;6815;59.336;17.998;2023-01-15T03:44:50;3.47;;;1.10;;
13485;SDS011;6815;59.336;17.998;2023-01-15T03:47:32;1.97;;;1.07;;
13485;SDS011;6815;59.336;17.998;2023-01-15T03:50:37;2.77;;;1.20;;
13485;SDS011;6815;59.336;17.998;2023-01-15T04:01:31;3.70;;;1.30;;
13485;SDS011;6815;59.336;17.998;2023-01-15T04:04:03;2.97;;;1.20;;
13485;SDS011;6815;59.336;17.998;2023-01-15T04:06:33;3.17;;;1.60;;
13485;SDS011;6815;59.336;17.998;2023-01-15T04:09:02;1.70;;;1.23;;
13485;SDS011;6815;59.336;17.998;2023-01-15T04:11:30;5.07;;;1.50;;
13485;SDS011;6815;59.336;17.998;2023-01-15T04:13:55;2.37;;;1.67;;
13485;SDS011;6815;59.336;17.998;2023-01-15T04:16:25;3.37;;;1.63;;
13485;SDS011;6815;59.336;17.998;2023-01-15T04:18:53;2.90;;;1.47;;
13485;SDS011;6815;59.336;17.998;2023-01-15T04:21:19;4.10;;;1.50;;
13485;SDS011;6815;59.336;17.998;2023-01-15T04:23:45;1.83;;;1.10;;
13485;SDS011;6815;59.336;17.998;2023-01-15T04:26:11;3.17;;;1.40;;
13485;SDS011;6815;59.336;17.998;2023-01-15T04:28:37;1.10;;;1.00;;
13485;SDS011;6815;59.336;17.998;2023-01-15T04:31:07;2.90;;;1.03;;
13485;SDS011;6815;59.336;17.998;2023-01-15T04:33:36;3.30;;;1.13;;
13485;SDS011;6815;59.336;17.998;2023-01-15T04:36:04;2.90;;;1.23;;
13485;SDS011;6815;59.336;17.998;2023-01-15T04:38:30;2.13;;;0.80;;
13485;SDS011;6815;59.336;17.998;2023-01-15T04:40:59;2.43;;;0.90;;
13485;SDS011;6815;59.336;17.998;2023-01-15T04:43:46;1.80;;;1.23;;
13485;SDS011;6815;59.336;17.998;2023-01-15T04:46:30;2.37;;;0.80;;
13485;SDS011;6815;59.336;17.998;2023-01-15T04:48:57;3.00;;;1.10;;
13485;SDS011;6815;59.336;17.998;2023-01-15T04:51:23;1.43;;;0.93;;
13485;SDS011;6815;59.336;17.998;2023-01-15T04:53:48;2.37;;;0.90;;
13485;SDS011;6815;59.336;17.998;2023-01-15T04:56:14;1.57;;;0.90;;
13485;SDS011;6815;59.336;17.998;2023-01-15T04:58:42;3.17;;;0.90;;
13485;SDS011;6815;59.336;17.998;2023-01-15T05:01:11;1.87;;;1.00;;
13485;SDS011;6815;59.336;17.998;2023-01-15T05:03:39;3.43;;;0.90;;
13485;SDS011;6815;59.336;17.998;2023-01-15T05:06:07;1.00;;;0.70;;
13485;SDS011;6815;59.336;17.998;2023-01-15T05:08:39;2.57;;;1.00;;
13485;SDS011;6815;59.336;17.998;2023-01-15T05:11:06;2.90;;;0.87;;
13485;SDS011;6815;59.336;17.998;2023-01-15T05:13:37;2.10;;;0.63;;
13485;SDS011;6815;59.336;17.998;2023-01-15T05:16:07;4.93;;;0.73;;
13485;SDS011;6815;59.336;17.998;2023-01-15T05:18:34;1.27;;;0.70;;
13485;SDS011;6815;59.336;17.998;2023-01-15T05:20:59;2.53;;;0.70;;
13485;SDS011;6815;59.336;17.998;2023-01-15T05:23:27;1.83;;;0.60;;
13485;SDS011;6815;59.336;17.998;2023-01-15T05:25:56;0.90;;;0.60;;
13485;SDS011;6815;59.336;17.998;2023-01-15T05:28:23;1.47;;;0.70;;
13485;SDS011;6815;59.336;17.998;2023-01-15T05:30:48;2.50;;;0.73;;
13485;SDS011;6815;59.336;17.998;2023-01-15T05:33:14;1.17;;;0.50;;
13485;SDS011;6815;59.336;17.998;2023-01-15T05:35:39;0.73;;;0.60;;
13485;SDS011;6815;59.336;17.998;2023-01-15T05:38:05;0.60;;;0.60;;
13485;SDS011;6815;59.336;17.998;2023-01-15T05:40:31;1.60;;;0.63;;
13485;SDS011;6815;59.336;17.998;2023-01-15T05:42:57;0.87;;;0.60;;
13485;SDS011;6815;59.336;17.998;2023-01-15T05:45:24;1.77;;;0.80;;
13485;SDS011;6815;59.336;17.998;2023-01-15T05:47:51;1.20;;;0.63;;
13485;SDS011;6815;59.336;17.998;2023-01-15T05:50:17;1.87;;;0.63;;
13485;SDS011;6815;59.336;17.998;2023-01-15T05:52:42;1.53;;;0.60;;
13485;SDS011;6815;59.336;17.998;2023-01-15T05:55:10;1.33;;;0.50;;
13485;SDS011;6815;59.336;17.998;2023-01-15T05:57:36;1.60;;;0.70;;
13485;SDS011;6815;59.336;17.998;2023-01-15T06:00:02;0.60;;;0.50;;
13485;SDS011;6815;59.336;17.998;2023-01-15T06:02:28;0.70;;;0.60;;
13485;SDS011;6815;59.336;17.998;2023-01-15T06:04:54;2.53;;;0.70;;
13485;SDS011;6815;59.336;17.998;2023-01-15T06:07:19;0.93;;;0.57;;
13485;SDS011;6815;59.336;17.998;2023-01-15T06:09:45;1.47;;;0.60;;
13485;SDS011;6815;59.336;17.998;2023-01-15T06:12:10;2.43;;;0.60;;
13485;SDS011;6815;59.336;17.998;2023-01-15T06:14:36;1.07;;;0.50;;
13485;SDS011;6815;59.336;17.998;2023-01-15T06:17:02;0.70;;;0.60;;
13485;SDS011;6815;59.336;17.998;2023-01-15T06:19:27;2.73;;;0.50;;
13485;SDS011;6815;59.336;17.998;2023-01-15T06:21:52;1.43;;;0.60;;
13485;SDS011;6815;59.336;17.998;2023-01-15T06:24:18;1.57;;;0.50;;
13485;SDS011;6815;59.336;17.998;2023-01-15T06:26:47;0.73;;;0.50;;
13485;SDS011;6815;59.336;17.998;2023-01-15T06:29:16;1.43;;;0.40;;
13485;SDS011;6815;59.336;17.998;2023-01-15T06:31:51;1.60;;;0.50;;
13485;SDS011;6815;59.336;17.998;2023-01-15T06:34:18;2.63;;;0.70;;
13485;SDS011;6815;59.336;17.998;2023-01-15T06:36:45;0.93;;;0.50;;
13485;SDS011;6815;59.336;17.998;2023-01-15T06:39:12;1.63;;;0.40;;
13485;SDS011;6815;59.336;17.998;2023-01-15T06:41:37;0.57;;;0.40;;
13485;SDS011;6815;59.336;17.998;2023-01-15T06:44:22;1.73;;;0.60;;
13485;SDS011;6815;59.336;17.998;2023-01-15T06:47:11;0.80;;;0.50;;
13485;SDS011;6815;59.336;17.998;2023-01-15T06:52:25;1.20;;;0.60;;
13485;SDS011;6815;59.336;17.998;2023-01-15T06:54:53;2.27;;;0.50;;
13485;SDS011;6815;59.336;17.998;2023-01-15T06:57:20;0.80;;;0.50;;
13485;SDS011;6815;59.336;17.998;2023-01-15T06:59:47;0.70;;;0.50;;
13485;SDS011;6815;59.336;17.998;2023-01-15T07:02:14;1.53;;;0.57;;
13485;SDS011;6815;59.336;17.998;2023-01-15T07:04:41;0.87;;;0.50;;
13485;SDS011;6815;59.336;17.998;2023-01-15T07:07:07;1.20;;;0.53;;
13485;SDS011;6815;59.336;17.998;2023-01-15T07:09:32;2.53;;;0.60;;
13485;SDS011;6815;59.336;17.998;2023-01-15T07:11:58;1.17;;;0.47;;
13485;SDS011;6815;59.336;17.998;2023-01-15T07:14:24;1.33;;;0.53;;
13485;SDS011;6815;59.336;17.998;2023-01-15T07:16:52;1.90;;;0.67;;
13485;SDS011;6815;59.336;17.998;2023-01-15T07:19:17;2.80;;;0.63;;
13485;SDS011;6815;59.336;17.998;2023-01-15T07:21:44;6.50;;;0.73;;
13485;SDS011;6815;59.336;17.998;2023-01-15T07:24:11;3.83;;;0.90;;
13485;SDS011;6815;59.336;17.998;2023-01-15T07:26:37;5.93;;;1.80;;
13485;SDS011;6815;59.336;17.998;2023-01-15T07:29:04;3.83;;;0.80;;
13485;SDS011;6815;59.336;17.998;2023-01-15T07:31:33;2.63;;;0.70;;
13485;SDS011;6815;59.336;17.998;2023-01-15T07:34:00;3.03;;;0.90;;
13485;SDS011;6815;59.336;17.998;2023-01-15T07:36:26;1.80;;;0.73;;
13485;SDS011;6815;59.336;17.998;2023-01-15T07:38:56;2.27;;;0.73;;
13485;SDS011;6815;59.336;17.998;2023-01-15T07:41:22;5.27;;;0.77;;
13485;SDS011;6815;59.336;17.998;2023-01-15T07:44:08;6.37;;;1.10;;
13485;SDS011;6815;59.336;17.998;2023-01-15T07:46:54;4.90;;;0.97;;
13485;SDS011;6815;59.336;17.998;2023-01-15T07:49:43;3.90;;;0.70;;
13485;SDS011;6815;59.336;17.998;2023-01-15T07:54:43;2.37;;;0.77;;
13485;SDS011;6815;59.336;17.998;2023-01-15T07:57:10;3.80;;;1.00;;
13485;SDS011;6815;59.336;17.998;2023-01-15T07:59:37;3.50;;;0.90;;
13485;SDS011;6815;59.336;17.998;2023-01-15T08:02:08;3.27;;;0.90;;
13485;SDS011;6815;59.336;17.998;2023-01-15T08:04:33;3.40;;;0.93;;
13485;SDS011;6815;59.336;17.998;2023-01-15T08:07:03;3.13;;;0.83;;
13485;SDS011;6815;59.336;17.998;2023-01-15T08:09:33;5.90;;;0.87;;
13485;SDS011;6815;59.336;17.998;2023-01-15T08:11:59;2.93;;;0.80;;
13485;SDS011;6815;59.336;17.998;2023-01-15T08:14:44;3.50;;;1.10;;
13485;SDS011;6815;59.336;17.998;2023-01-15T08:17:28;9.53;;;1.17;;
13485;SDS011;6815;59.336;17.998;2023-01-15T08:19:53;2.47;;;1.00;;
13485;SDS011;6815;59.336;17.998;2023-01-15T08:22:19;5.13;;;0.90;;
13485;SDS011;6815;59.336;17.998;2023-01-15T08:24:46;3.20;;;0.80;;
13485;SDS011;6815;59.336;17.998;2023-01-15T08:27:12;7.90;;;1.40;;
13485;SDS011;6815;59.336;17.998;2023-01-15T08:29:38;3.27;;;0.97;;
13485;SDS011;6815;59.336;17.998;2023-01-15T08:32:05;3.63;;;1.20;;
13485;SDS011;6815;59.336;17.998;2023-01-15T08:34:30;4.00;;;0.90;;
13485;SDS011;6815;59.336;17.998;2023-01-15T08:36:57;5.40;;;1.10;;
13485;SDS011;6815;59.336;17.998;2023-01-15T08:39:27;4.37;;;1.10;;
13485;SDS011;6815;59.336;17.998;2023-01-15T08:41:54;2.87;;;1.10;;
13485;SDS011;6815;59.336;17.998;2023-01-15T08:44:21;3.70;;;0.93;;
13485;SDS011;6815;59.336;17.998;2023-01-15T08:46:48;8.57;;;1.73;;
13485;SDS011;6815;59.336;17.998;2023-01-15T08:49:16;6.83;;;1.37;;
13485;SDS011;6815;59.336;17.998;2023-01-15T08:51:43;3.27;;;1.10;;
13485;SDS011;6815;59.336;17.998;2023-01-15T08:54:09;2.93;;;1.10;;
13485;SDS011;6815;59.336;17.998;2023-01-15T08:56:37;2.67;;;1.10;;
13485;SDS011;6815;59.336;17.998;2023-01-15T08:59:03;5.17;;;1.10;;
13485;SDS011;6815;59.336;17.998;2023-01-15T09:01:29;4.67;;;1.00;;
13485;SDS011;6815;59.336;17.998;2023-01-15T09:03:55;9.47;;;1.13;;
13485;SDS011;6815;59.336;17.998;2023-01-15T09:06:22;4.97;;;1.10;;
13485;SDS011;6815;59.336;17.998;2023-01-15T09:08:47;3.23;;;0.80;;
13485;SDS011;6815;59.336;17.998;2023-01-15T09:11:13;3.90;;;1.10;;
13485;SDS011;6815;59.336;17.998;2023-01-15T09:13:39;4.40;;;1.03;;
13485;SDS011;6815;59.336;17.998;2023-01-15T09:16:05;4.40;;;1.53;;
13485;SDS011;6815;59.336;17.998;2023-01-15T09:18:31;4.83;;;0.80;;
13485;SDS011;6815;59.336;17.998;2023-01-15T09:20:57;7.10;;;1.10;;
13485;SDS011;6815;59.336;17.998;2023-01-15T09:23:23;4.90;;;1.00;;
13485;SDS011;6815;59.336;17.998;2023-01-15T09:25:56;4.30;;;1.03;;
13485;SDS011;6815;59.336;17.998;2023-01-15T09:28:26;4.83;;;1.17;;
13485;SDS011;6815;59.336;17.998;2023-01-15T09:30:54;5.60;;;0.90;;
13485;SDS011;6815;59.336;17.998;2023-01-15T09:33:19;6.23;;;1.53;;
13485;SDS011;6815;59.336;17.998;2023-01-15T09:35:45;4.77;;;1.30;;
13485;SDS011;6815;59.336;17.998;2023-01-15T09:38:12;3.70;;;1.23;;
13485;SDS011;6815;59.336;17.998;2023-01-15T09:56:53;2.97;;;0.93;;
13485;SDS011;6815;59.336;17.998;2023-01-15T09:59:21;3.80;;;1.10;;
13485;SDS011;6815;59.336;17.998;2023-01-15T10:01:56;4.13;;;1.27;;
13485;SDS011;6815;59.336;17.998;2023-01-15T10:06:51;5.00;;;1.67;;
13485;SDS011;6815;59.336;17.998;2023-01-15T10:09:27;10.73;;;1.40;;
13485;SDS011;6815;59.336;17.998;2023-01-15T10:12:01;6.23;;;1.40;;
13485;SDS011;6815;59.336;17.998;2023-01-15T10:17:39;4.47;;;1.10;;
13485;SDS011;6815;59.336;17.998;2023-01-15T10:20:13;6.67;;;1.30;;
13485;SDS011;6815;59.336;17.998;2023-01-15T10:31:20;5.53;;;1.17;;
13485;SDS011;6815;59.336;17.998;2023-01-15T10:36:52;7.87;;;1.50;;
13485;SDS011;6815;59.336;17.998;2023-01-15T10:42:31;5.17;;;1.20;;
13485;SDS011;6815;59.336;17.998;2023-01-15T10:45:15;5.60;;;1.30;;
13485;SDS011;6815;59.336;17.998;2023-01-15T10:47:47;6.40;;;1.37;;
13485;SDS011;6815;59.336;17.998;2023-01-15T10:50:23;5.30;;;1.13;;
13485;SDS011;6815;59.336;17.998;2023-01-15T10:55:54;6.50;;;1.70;;
13485;SDS011;6815;59.336;17.998;2023-01-15T10:58:41;4.90;;;1.27;;
13485;SDS011;6815;59.336;17.998;2023-01-15T11:01:14;6.50;;;1.33;;
13485;SDS011;6815;59.336;17.998;2023-01-15T11:03:43;6.90;;;1.93;;
13485;SDS011;6815;59.336;17.998;2023-01-15T11:06:14;6.57;;;1.33;;
13485;SDS011;6815;59.336;17.998;2023-01-15T11:09:04;6.07;;;1.50;;
13485;SDS011;6815;59.336;17.998;2023-01-15T11:14:31;6.53;;;1.20;;
13485;SDS011;6815;59.336;17.998;2023-01-15T11:17:23;4.93;;;1.53;;
13485;SDS011;6815;59.336;17.998;2023-01-15T11:20:13;5.83;;;1.43;;
13485;SDS011;6815;59.336;17.998;2023-01-15T11:22:51;8.90;;;1.37;;
13485;SDS011;6815;59.336;17.998;2023-01-15T11:25:24;8.20;;;1.30;;
13485;SDS011;6815;59.336;17.998;2023-01-15T11:27:51;9.10;;;1.90;;
13485;SDS011;6815;59.336;17.998;2023-01-15T11:30:32;7.37;;;1.70;;
13485;SDS011;6815;59.336;17.998;2023-01-15T11:33:03;5.40;;;1.50;;
13485;SDS011;6815;59.336;17.998;2023-01-15T11:35:30;4.43;;;1.50;;
13485;SDS011;6815;59.336;17.998;2023-01-15T11:38:04;7.17;;;1.67;;
13485;SDS011;6815;59.336;17.998;2023-01-15T11:40:33;6.47;;;1.17;;
13485;SDS011;6815;59.336;17.998;2023-01-15T11:43:00;8.73;;;1.53;;
13485;SDS011;6815;59.336;17.998;2023-01-15T11:45:51;4.33;;;1.30;;
13485;SDS011;6815;59.336;17.998;2023-01-15T11:48:42;6.10;;;1.83;;
13485;SDS011;6815;59.336;17.998;2023-01-15T11:51:28;9.80;;;2.40;;
13485;SDS011;6815;59.336;17.998;2023-01-15T11:54:01;7.83;;;2.10;;
13485;SDS011;6815;59.336;17.998;2023-01-15T11:56:29;6.43;;;1.60;;
13485;SDS011;6815;59.336;17.998;2023-01-15T11:58:59;9.57;;;2.27;;
13485;SDS011;6815;59.336;17.998;2023-01-15T12:01:31;6.27;;;1.80;;
13485;SDS011;6815;59.336;17.998;2023-01-15T12:04:21;6.33;;;1.53;;
13485;SDS011;6815;59.336;17.998;2023-01-15T12:06:48;7.47;;;1.50;;
13485;SDS011;6815;59.336;17.998;2023-01-15T12:20:28;6.03;;;2.40;;
13485;SDS011;6815;59.336;17.998;2023-01-15T12:23:26;6.87;;;2.17;;
13485;SDS011;6815;59.336;17.998;2023-01-15T12:29:21;5.33;;;1.73;;
13485;SDS011;6815;59.336;17.998;2023-01-15T12:32:00;9.87;;;2.23;;
13485;SDS011;6815;59.336;17.998;2023-01-15T12:39:46;6.57;;;1.60;;
13485;SDS011;6815;59.336;17.998;2023-01-15T12:42:16;8.57;;;2.43;;
13485;SDS011;6815;59.336;17.998;2023-01-15T12:45:07;5.93;;;1.70;;
13485;SDS011;6815;59.336;17.998;2023-01-15T12:47:35;7.03;;;2.00;;
13485;SDS011;6815;59.336;17.998;2023-01-15T12:50:21;8.50;;;1.80;;
13485;SDS011;6815;59.336;17.998;2023-01-15T12:53:05;5.37;;;1.77;;
13485;SDS011;6815;59.336;17.998;2023-01-15T12:55:55;5.60;;;1.67;;
13485;SDS011;6815;59.336;17.998;2023-01-15T13:03:59;8.83;;;1.87;;
13485;SDS011;6815;59.336;17.998;2023-01-15T13:06:40;9.27;;;2.53;;
13485;SDS011;6815;59.336;17.998;2023-01-15T13:12:16;6.97;;;1.93;;
13485;SDS011;6815;59.336;17.998;2023-01-15T13:14:44;6.37;;;2.03;;
13485;SDS011;6815;59.336;17.998;2023-01-15T13:17:22;5.13;;;1.63;;
13485;SDS011;6815;59.336;17.998;2023-01-15T13:20:04;9.17;;;2.07;;
13485;SDS011;6815;59.336;17.998;2023-01-15T13:22:40;6.97;;;1.70;;
13485;SDS011;6815;59.336;17.998;2023-01-15T13:33:58;8.23;;;2.00;;
13485;SDS011;6815;59.336;17.998;2023-01-15T13:36:31;8.40;;;1.70;;
13485;SDS011;6815;59.336;17.998;2023-01-15T13:39:04;7.63;;;1.90;;
13485;SDS011;6815;59.336;17.998;2023-01-15T13:41:33;6.37;;;1.90;;
13485;SDS011;6815;59.336;17.998;2023-01-15T13:44:18;8.13;;;2.20;;
13485;SDS011;6815;59.336;17.998;2023-01-15T13:46:46;9.63;;;2.07;;
13485;SDS011;6815;59.336;17.998;2023-01-15T13:49:30;7.37;;;1.90;;
13485;SDS011;6815;59.336;17.998;2023-01-15T13:51:59;8.13;;;1.97;;
13485;SDS011;6815;59.336;17.998;2023-01-15T13:54:30;6.57;;;1.80;;
13485;SDS011;6815;59.336;17.998;2023-01-15T13:57:08;6.60;;;1.70;;
13485;SDS011;6815;59.336;17.998;2023-01-15T13:59:55;6.23;;;1.73;;
13485;SDS011;6815;59.336;17.998;2023-01-15T14:02:25;7.30;;;1.77;;
13485;SDS011;6815;59.336;17.998;2023-01-15T14:04:58;7.90;;;1.83;;
13485;SDS011;6815;59.336;17.998;2023-01-15T14:07:45;9.40;;;2.23;;
13485;SDS011;6815;59.336;17.998;2023-01-15T14:18:12;7.93;;;1.80;;
13485;SDS011;6815;59.336;17.998;2023-01-15T14:21:19;7.90;;;1.80;;
13485;SDS011;6815;59.336;17.998;2023-01-15T14:24:01;7.47;;;2.03;;
13485;SDS011;6815;59.336;17.998;2023-01-15T14:35:49;5.17;;;1.60;;
13485;SDS011;6815;59.336;17.998;2023-01-15T14:38:17;8.43;;;1.60;;
13485;SDS011;6815;59.336;17.998;2023-01-15T14:40:54;9.90;;;2.13;;
13485;SDS011;6815;59.336;17.998;2023-01-15T14:43:39;5.87;;;2.03;;
13485;SDS011;6815;59.336;17.998;2023-01-15T14:46:19;7.97;;;2.10;;
13485;SDS011;6815;59.336;17.998;2023-01-15T14:48:50;8.23;;;1.80;;
13485;SDS011;6815;59.336;17.998;2023-01-15T14:51:18;6.63;;;1.73;;
13485;SDS011;6815;59.336;17.998;2023-01-15T14:56:51;8.27;;;1.80;;
13485;SDS011;6815;59.336;17.998;2023-01-15T14:59:22;4.00;;;1.87;;
13485;SDS011;6815;59.336;17.998;2023-01-15T15:02:04;8.50;;;1.80;;
13485;SDS011;6815;59.336;17.998;2023-01-15T15:04:51;8.73;;;2.10;;
13485;SDS011;6815;59.336;17.998;2023-01-15T15:07:20;6.47;;;1.70;;
13485;SDS011;6815;59.336;17.998;2023-01-15T15:10:01;7.63;;;1.93;;
13485;SDS011;6815;59.336;17.998;2023-01-15T15:12:51;12.23;;;2.47;;
13485;SDS011;6815;59.336;17.998;2023-01-15T15:18:04;7.40;;;2.00;;
13485;SDS011;6815;59.336;17.998;2023-01-15T15:23:36;10.37;;;2.50;;
13485;SDS011;6815;59.336;17.998;2023-01-15T15:26:31;9.07;;;2.00;;
13485;SDS011;6815;59.336;17.998;2023-01-15T15:28:59;8.90;;;2.10;;
13485;SDS011;6815;59.336;17.998;2023-01-15T15:31:27;5.83;;;2.00;;
13485;SDS011;6815;59.336;17.998;2023-01-15T15:33:55;8.87;;;2.33;;
13485;SDS011;6815;59.336;17.998;2023-01-15T15:36:23;8.93;;;2.20;;
13485;SDS011;6815;59.336;17.998;2023-01-15T15:39:02;6.03;;;1.97;;
13485;SDS011;6815;59.336;17.998;2023-01-15T15:41:39;4.80;;;1.80;;
13485;SDS011;6815;59.336;17.998;2023-01-15T15:44:30;10.53;;;2.43;;
13485;SDS011;6815;59.336;17.998;2023-01-15T15:47:20;8.70;;;2.27;;
13485;SDS011;6815;59.336;17.998;2023-01-15T15:50:05;7.47;;;1.90;;
13485;SDS011;6815;59.336;17.998;2023-01-15T15:52:32;9.33;;;2.67;;
13485;SDS011;6815;59.336;17.998;2023-01-15T15:55:00;9.30;;;2.30;;
13485;SDS011;6815;59.336;17.998;2023-01-15T15:57:29;9.80;;;2.80;;
13485;SDS011;6815;59.336;17.998;2023-01-15T15:59:57;6.53;;;1.70;;
13485;SDS011;6815;59.336;17.998;2023-01-15T16:02:35;9.67;;;2.30;;
13485;SDS011;6815;59.336;17.998;2023-01-15T16:07:43;8.53;;;2.13;;
13485;SDS011;6815;59.336;17.998;2023-01-15T16:12:55;11.70;;;2.43;;
13485;SDS011;6815;59.336;17.998;2023-01-15T16:15:25;9.50;;;2.47;;
13485;SDS011;6815;59.336;17.998;2023-01-15T16:17:55;7.40;;;2.50;;
13485;SDS011;6815;59.336;17.998;2023-01-15T16:20:22;8.23;;;1.90;;
13485;SDS011;6815;59.336;17.998;2023-01-15T16:22:58;8.27;;;2.17;;
13485;SDS011;6815;59.336;17.998;2023-01-15T16:25:26;8.77;;;2.57;;
13485;SDS011;6815;59.336;17.998;2023-01-15T16:27:56;7.30;;;2.00;;
13485;SDS011;6815;59.336;17.998;2023-01-15T16:30:21;11.83;;;2.80;;
13485;SDS011;6815;59.336;17.998;2023-01-15T16:32:47;6.20;;;2.17;;
13485;SDS011;6815;59.336;17.998;2023-01-15T16:35:18;9.13;;;2.27;;
13485;SDS011;6815;59.336;17.998;2023-01-15T16:37:49;8.90;;;2.00;;
13485;SDS011;6815;59.336;17.998;2023-01-15T16:40:24;9.10;;;2.00;;
13485;SDS011;6815;59.336;17.998;2023-01-15T16:46:01;11.37;;;2.53;;
13485;SDS011;6815;59.336;17.998;2023-01-15T16:48:30;11.13;;;2.90;;
13485;SDS011;6815;59.336;17.998;2023-01-15T16:51:21;10.37;;;2.30;;
13485;SDS011;6815;59.336;17.998;2023-01-15T16:53:48;5.87;;;2.50;;
13485;SDS011;6815;59.336;17.998;2023-01-15T16:56:52;10.23;;;2.00;;
13485;SDS011;6815;59.336;17.998;2023-01-15T16:59:16;10.80;;;2.33;;
13485;SDS011;6815;59.336;17.998;2023-01-15T17:04:43;10.57;;;2.33;;
13485;SDS011;6815;59.336;17.998;2023-01-15T17:09:41;8.93;;;2.33;;
13485;SDS011;6815;59.336;17.998;2023-01-15T17:17:45;13.10;;;2.73;;
13485;SDS011;6815;59.336;17.998;2023-01-15T17:20:12;5.23;;;1.60;;
13485;SDS011;6815;59.336;17.998;2023-01-15T17:22:41;8.57;;;2.10;;
13485;SDS011;6815;59.336;17.998;2023-01-15T17:25:21;6.93;;;1.93;;
13485;SDS011;6815;59.336;17.998;2023-01-15T17:27:50;9.90;;;1.60;;
13485;SDS011;6815;59.336;17.998;2023-01-15T17:30:18;5.77;;;1.60;;
13485;SDS011;6815;59.336;17.998;2023-01-15T17:32:44;9.77;;;2.17;;
13485;SDS011;6815;59.336;17.998;2023-01-15T17:35:24;7.43;;;1.80;;
13485;SDS011;6815;59.336;17.998;2023-01-15T17:37:52;3.97;;;1.33;;
13485;SDS011;6815;59.336;17.998;2023-01-15T17:40:21;6.40;;;1.50;;
13485;SDS011;6815;59.336;17.998;2023-01-15T17:42:47;6.97;;;1.67;;
13485;SDS011;6815;59.336;17.998;2023-01-15T17:45:18;6.73;;;2.37;;
13485;SDS011;6815;59.336;17.998;2023-01-15T17:48:02;9.10;;;1.77;;
13485;SDS011;6815;59.336;17.998;2023-01-15T17:50:32;7.73;;;1.67;;
13485;SDS011;6815;59.336;17.998;2023-01-15T17:52:58;9.77;;;1.60;;
13485;SDS011;6815;59.336;17.998;2023-01-15T17:55:23;7.27;;;1.77;;